Portsmouth, Rhode Island
Current Conditions -  °F | °C
As of 1:53 PM on Friday 24 Oct 2014 (Local Time) from KUUU Reporting Station
Overcast Overcast  
Wind Chill: 55°   Ceiling: 2100
Heat Index: 55°   Visibility: 10mi
Dew Point: 45°   Wind: 12mph
Humidity: 69%   Direction: 330°NNW
Pressure: 29.68"   Gusts: 17mph
Location:  41.6°N, 71.25°W
Report Text: KUUU 241753Z AUTO 33010G15KT 10SM OVC021 13/07 A2968 RMK AO2 SLP050 60000 T01280072 10128 20111 57007
Loading
Personal Weather Stations






























Interactive Weather Map New forecast layout! Learn more

10-Day Weather Forecast

Advertisements
Track Severe Weather on mobile